createdAt,value
2022-09-01T00:02:53.426Z,23.83
2022-09-01T00:07:50.922Z,23.92
2022-09-01T00:12:48.159Z,23.71
2022-09-01T00:17:45.245Z,23.79
2022-09-01T00:22:43.106Z,23.42
2022-09-01T00:27:40.207Z,23.67
2022-09-01T00:32:37.030Z,23.62
2022-09-01T00:37:33.884Z,23.63
2022-09-01T00:42:31.471Z,23.10
2022-09-01T00:47:28.435Z,23.51
2022-09-01T00:52:31.016Z,22.87
2022-09-01T00:57:28.436Z,23.33
2022-09-01T01:02:26.833Z,23.34
2022-09-01T01:07:26.611Z,23.16
2022-09-01T01:17:22.133Z,23.21
2022-09-01T01:22:45.653Z,23.02
2022-09-01T01:27:43.366Z,22.93
2022-09-01T01:32:43.291Z,22.75
2022-09-01T01:37:40.938Z,22.98
2022-09-01T01:42:38.106Z,22.88
2022-09-01T01:47:35.676Z,22.64
2022-09-01T01:52:34.276Z,22.48
2022-09-01T01:57:34.963Z,22.50
2022-09-01T02:02:32.983Z,22.49
2022-09-01T02:07:32.229Z,22.00
2022-09-01T02:12:32.102Z,22.43
2022-09-01T02:17:29.426Z,22.44
2022-09-01T02:22:32.921Z,22.41
2022-09-01T02:27:33.431Z,22.48
2022-09-01T02:32:30.453Z,22.25
2022-09-01T02:37:29.443Z,22.35
2022-09-01T02:42:29.642Z,22.06
2022-09-01T02:47:27.995Z,22.05
2022-09-01T02:52:29.195Z,22.10
2022-09-01T02:57:27.375Z,21.68
2022-09-01T03:02:28.276Z,22.23
2022-09-01T03:07:27.240Z,21.76
2022-09-01T03:12:24.274Z,22.02
2022-09-01T03:17:21.941Z,22.04
2022-09-01T03:22:19.058Z,21.76
2022-09-01T03:27:16.070Z,21.98
2022-09-01T03:32:13.050Z,22.06
2022-09-01T03:37:11.645Z,21.83
2022-09-01T03:42:11.297Z,22.06
2022-09-01T03:47:10.677Z,22.19
2022-09-01T03:52:08.392Z,22.02
2022-09-01T03:57:09.383Z,22.33
2022-09-01T04:02:07.152Z,22.14
2022-09-01T04:07:04.211Z,21.94
2022-09-01T04:12:01.170Z,21.66
2022-09-01T04:17:16.866Z,21.90
2022-09-01T04:22:17.085Z,21.63
2022-09-01T04:27:17.554Z,22.06
2022-09-01T04:32:35.304Z,21.93
2022-09-01T04:37:48.000Z,21.68
2022-09-01T04:42:46.986Z,21.72
2022-09-01T04:47:51.716Z,21.81
2022-09-01T04:52:50.695Z,21.56
2022-09-01T04:58:00.177Z,21.85
2022-09-01T05:03:02.503Z,21.90
2022-09-01T05:08:01.387Z,22.14
2022-09-01T05:13:01.218Z,22.17
2022-09-01T05:18:01.660Z,22.24
2022-09-01T05:23:00.126Z,22.19
2022-09-01T05:28:12.986Z,22.46
2022-09-01T05:33:13.373Z,23.14
2022-09-01T05:38:15.030Z,23.56
2022-09-01T05:43:14.301Z,23.85
2022-09-01T05:48:12.721Z,24.15
2022-09-01T05:53:16.558Z,24.41
2022-09-01T05:58:26.676Z,23.57
2022-09-01T06:03:27.163Z,23.54
2022-09-01T06:08:28.673Z,23.51
2022-09-01T06:13:34.181Z,23.77
2022-09-01T06:26:52.515Z,25.28
2022-09-01T06:32:26.277Z,27.17
2022-09-01T06:37:25.202Z,28.73
2022-09-01T06:42:25.644Z,29.44
2022-09-01T06:48:00.751Z,30.26
2022-09-01T06:58:25.908Z,30.23
2022-09-01T07:03:27.875Z,30.79
2022-09-01T07:14:18.541Z,33.11
2022-09-01T07:19:19.600Z,33.74
2022-09-01T07:24:26.540Z,33.42
2022-09-01T07:29:46.852Z,33.94
2022-09-01T07:34:59.057Z,33.20
2022-09-01T07:45:37.254Z,33.19
2022-09-01T07:51:34.737Z,33.36
2022-09-01T07:56:00.736Z,33.78
2022-09-01T08:01:01.942Z,34.36
2022-09-01T08:06:05.852Z,33.38
2022-09-01T08:11:06.450Z,33.36
2022-09-01T08:16:20.067Z,34.16
2022-09-01T08:21:22.770Z,34.80
2022-09-01T09:03:56.561Z,34.42
2022-09-01T09:24:49.406Z,34.43
2022-09-01T09:29:53.764Z,34.57
2022-09-01T09:55:57.146Z,35.40
2022-09-01T10:01:57.558Z,36.44
2022-09-01T10:13:32.586Z,36.77
2022-09-01T10:24:56.695Z,35.50
2022-09-01T10:44:32.078Z,34.62
2022-09-01T16:29:32.687Z,28.91
2022-09-01T16:35:43.775Z,29.05
2022-09-01T16:54:16.687Z,28.13
2022-09-01T17:00:07.403Z,27.87
2022-09-01T17:06:07.103Z,27.78
2022-09-01T17:19:37.305Z,28.86
2022-09-01T17:25:30.789Z,28.33
2022-09-01T17:31:16.430Z,27.65
2022-09-01T18:55:03.172Z,23.88
2022-09-01T19:01:59.440Z,23.51
2022-09-01T19:13:41.438Z,22.97
2022-09-01T21:10:23.028Z,21.91
2022-09-01T21:16:54.657Z,21.76
2022-09-01T22:57:14.870Z,21.94
2022-09-01T23:14:52.355Z,21.26
2022-09-01T23:40:21.996Z,20.94
2022-09-01T23:45:36.309Z,21.01
2022-09-01T23:51:33.044Z,20.99
2022-09-01T23:57:06.053Z,21.09
